sensor_id;sensor_type;location;lat;lon;timestamp;temperature;humidity
72646;DHT22;60687;53.876;10.674;2023-10-09T00:03:50;11.30;97.10
72646;DHT22;60687;53.876;10.674;2023-10-09T00:13:56;11.20;97.80
72646;DHT22;60687;53.876;10.674;2023-10-09T00:23:59;11.20;98.60
72646;DHT22;60687;53.876;10.674;2023-10-09T00:34:08;11.10;99.90
72646;DHT22;60687;53.876;10.674;2023-10-09T00:44:16;11.10;99.90
72646;DHT22;60687;53.876;10.674;2023-10-09T00:54:22;11.10;99.90
72646;DHT22;60687;53.876;10.674;2023-10-09T01:04:29;11.00;99.90
72646;DHT22;60687;53.876;10.674;2023-10-09T01:14:41;11.00;99.90
72646;DHT22;60687;53.876;10.674;2023-10-09T01:24:45;11.10;99.90
72646;DHT22;60687;53.876;10.674;2023-10-09T01:34:51;11.00;99.90
72646;DHT22;60687;53.876;10.674;2023-10-09T01:45:03;11.00;99.90
72646;DHT22;60687;53.876;10.674;2023-10-09T01:55:28;11.00;99.90
72646;DHT22;60687;53.876;10.674;2023-10-09T02:05:41;11.00;99.90
72646;DHT22;60687;53.876;10.674;2023-10-09T02:15:43;11.00;99.90
72646;DHT22;60687;53.876;10.674;2023-10-09T02:26:04;11.00;99.90
72646;DHT22;60687;53.876;10.674;2023-10-09T02:36:09;10.90;99.90
72646;DHT22;60687;53.876;10.674;2023-10-09T02:46:19;11.00;99.90
72646;DHT22;60687;53.876;10.674;2023-10-09T02:56:22;10.90;99.90
72646;DHT22;60687;53.876;10.674;2023-10-09T03:06:27;10.80;99.90
72646;DHT22;60687;53.876;10.674;2023-10-09T03:16:32;10.70;99.90
72646;DHT22;60687;53.876;10.674;2023-10-09T03:26:36;10.70;99.90
72646;DHT22;60687;53.876;10.674;2023-10-09T03:36:39;10.70;99.90
72646;DHT22;60687;53.876;10.674;2023-10-09T03:46:42;10.70;99.90
72646;DHT22;60687;53.876;10.674;2023-10-09T03:56:45;10.70;99.90
72646;DHT22;60687;53.876;10.674;2023-10-09T04:06:52;10.80;99.90
72646;DHT22;60687;53.876;10.674;2023-10-09T04:16:54;10.70;99.90
72646;DHT22;60687;53.876;10.674;2023-10-09T04:27:07;10.70;99.90
72646;DHT22;60687;53.876;10.674;2023-10-09T04:37:09;10.60;99.90
72646;DHT22;60687;53.876;10.674;2023-10-09T04:47:26;10.70;99.90
72646;DHT22;60687;53.876;10.674;2023-10-09T04:57:39;10.60;99.90
72646;DHT22;60687;53.876;10.674;2023-10-09T05:07:49;10.60;99.90
72646;DHT22;60687;53.876;10.674;2023-10-09T05:17:58;10.60;99.90
72646;DHT22;60687;53.876;10.674;2023-10-09T05:28:11;10.60;99.90
72646;DHT22;60687;53.876;10.674;2023-10-09T05:38:32;10.60;99.90
72646;DHT22;60687;53.876;10.674;2023-10-09T05:48:38;10.60;99.90
72646;DHT22;60687;53.876;10.674;2023-10-09T05:58:55;10.60;99.90
72646;DHT22;60687;53.876;10.674;2023-10-09T06:09:17;10.50;99.90
72646;DHT22;60687;53.876;10.674;2023-10-09T06:19:50;10.50;99.90
72646;DHT22;60687;53.876;10.674;2023-10-09T06:30:01;10.60;99.90
72646;DHT22;60687;53.876;10.674;2023-10-09T06:40:24;10.60;99.90
72646;DHT22;60687;53.876;10.674;2023-10-09T06:50:45;10.60;99.90
72646;DHT22;60687;53.876;10.674;2023-10-09T07:00:59;10.60;99.90
72646;DHT22;60687;53.876;10.674;2023-10-09T07:11:19;10.70;99.90
72646;DHT22;60687;53.876;10.674;2023-10-09T07:21:45;10.70;99.90
72646;DHT22;60687;53.876;10.674;2023-10-09T07:31:56;10.70;99.90
72646;DHT22;60687;53.876;10.674;2023-10-09T07:42:13;10.80;99.90
72646;DHT22;60687;53.876;10.674;2023-10-09T07:52:29;10.90;99.90
72646;DHT22;60687;53.876;10.674;2023-10-09T08:02:31;10.90;99.90
72646;DHT22;60687;53.876;10.674;2023-10-09T08:12:35;10.90;99.90
72646;DHT22;60687;53.876;10.674;2023-10-09T08:22:57;10.90;99.90
72646;DHT22;60687;53.876;10.674;2023-10-09T08:33:01;10.90;99.90
72646;DHT22;60687;53.876;10.674;2023-10-09T08:43:09;11.00;99.90
72646;DHT22;60687;53.876;10.674;2023-10-09T08:53:13;11.00;99.90
72646;DHT22;60687;53.876;10.674;2023-10-09T09:03:18;11.00;99.90
72646;DHT22;60687;53.876;10.674;2023-10-09T09:13:25;11.10;99.90
72646;DHT22;60687;53.876;10.674;2023-10-09T09:23:32;11.20;99.90
72646;DHT22;60687;53.876;10.674;2023-10-09T09:33:36;11.20;99.90
72646;DHT22;60687;53.876;10.674;2023-10-09T09:43:40;11.20;99.90
72646;DHT22;60687;53.876;10.674;2023-10-09T09:53:47;11.30;99.90
72646;DHT22;60687;53.876;10.674;2023-10-09T10:03:52;11.40;99.90
72646;DHT22;60687;53.876;10.674;2023-10-09T10:13:59;11.50;99.90
72646;DHT22;60687;53.876;10.674;2023-10-09T10:24:42;11.50;99.90
72646;DHT22;60687;53.876;10.674;2023-10-09T10:34:59;11.60;99.90
72646;DHT22;60687;53.876;10.674;2023-10-09T10:45:08;11.60;99.90
72646;DHT22;60687;53.876;10.674;2023-10-09T10:55:36;11.60;99.90
72646;DHT22;60687;53.876;10.674;2023-10-09T11:05:50;11.70;99.90
72646;DHT22;60687;53.876;10.674;2023-10-09T11:15:56;11.80;99.90
72646;DHT22;60687;53.876;10.674;2023-10-09T11:26:15;11.90;99.90
72646;DHT22;60687;53.876;10.674;2023-10-09T11:36:28;11.90;99.90
72646;DHT22;60687;53.876;10.674;2023-10-09T11:46:32;12.00;99.90
72646;DHT22;60687;53.876;10.674;2023-10-09T11:56:50;12.00;99.90
72646;DHT22;60687;53.876;10.674;2023-10-09T12:06:59;12.00;99.90
72646;DHT22;60687;53.876;10.674;2023-10-09T12:17:10;12.00;99.90
72646;DHT22;60687;53.876;10.674;2023-10-09T12:27:13;12.00;99.90
72646;DHT22;60687;53.876;10.674;2023-10-09T12:37:17;12.00;99.90
72646;DHT22;60687;53.876;10.674;2023-10-09T12:47:21;12.00;99.90
72646;DHT22;60687;53.876;10.674;2023-10-09T12:57:26;12.10;99.90
72646;DHT22;60687;53.876;10.674;2023-10-09T13:07:28;12.10;99.90
72646;DHT22;60687;53.876;10.674;2023-10-09T13:17:33;12.20;99.90
72646;DHT22;60687;53.876;10.674;2023-10-09T13:27:36;12.30;99.90
72646;DHT22;60687;53.876;10.674;2023-10-09T13:37:40;12.30;99.90
72646;DHT22;60687;53.876;10.674;2023-10-09T13:47:45;12.30;99.90
72646;DHT22;60687;53.876;10.674;2023-10-09T13:57:49;12.30;99.90
72646;DHT22;60687;53.876;10.674;2023-10-09T14:07:51;12.40;99.90
72646;DHT22;60687;53.876;10.674;2023-10-09T14:18:01;12.40;99.90
72646;DHT22;60687;53.876;10.674;2023-10-09T14:28:10;12.50;99.90
72646;DHT22;60687;53.876;10.674;2023-10-09T14:38:14;12.50;99.90
72646;DHT22;60687;53.876;10.674;2023-10-09T14:48:17;12.50;99.90
72646;DHT22;60687;53.876;10.674;2023-10-09T14:58:28;12.50;99.90
72646;DHT22;60687;53.876;10.674;2023-10-09T15:08:34;12.50;99.90
72646;DHT22;60687;53.876;10.674;2023-10-09T15:18:38;12.50;99.90
72646;DHT22;60687;53.876;10.674;2023-10-09T15:28:40;12.50;99.90
72646;DHT22;60687;53.876;10.674;2023-10-09T15:38:44;12.50;99.90
72646;DHT22;60687;53.876;10.674;2023-10-09T15:48:48;12.50;99.90
72646;DHT22;60687;53.876;10.674;2023-10-09T15:58:53;12.50;99.90
72646;DHT22;60687;53.876;10.674;2023-10-09T16:08:57;12.50;99.90
72646;DHT22;60687;53.876;10.674;2023-10-09T16:19:01;12.50;99.90
72646;DHT22;60687;53.876;10.674;2023-10-09T16:29:07;12.40;99.90
72646;DHT22;60687;53.876;10.674;2023-10-09T16:39:11;12.40;99.90
72646;DHT22;60687;53.876;10.674;2023-10-09T16:49:23;12.40;99.90
72646;DHT22;60687;53.876;10.674;2023-10-09T16:59:27;12.40;99.90
72646;DHT22;60687;53.876;10.674;2023-10-09T17:09:34;12.40;99.90
72646;DHT22;60687;53.876;10.674;2023-10-09T17:19:40;12.40;99.90
72646;DHT22;60687;53.876;10.674;2023-10-09T17:29:45;12.40;99.90
72646;DHT22;60687;53.876;10.674;2023-10-09T17:39:48;12.30;99.90
72646;DHT22;60687;53.876;10.674;2023-10-09T17:49:51;12.30;99.90
72646;DHT22;60687;53.876;10.674;2023-10-09T17:59:54;12.40;99.90
72646;DHT22;60687;53.876;10.674;2023-10-09T18:09:57;12.40;99.90
72646;DHT22;60687;53.876;10.674;2023-10-09T18:20:01;12.40;99.90
72646;DHT22;60687;53.876;10.674;2023-10-09T18:30:07;12.40;99.90
72646;DHT22;60687;53.876;10.674;2023-10-09T18:40:14;12.40;99.90
72646;DHT22;60687;53.876;10.674;2023-10-09T18:50:17;12.40;99.90
72646;DHT22;60687;53.876;10.674;2023-10-09T19:00:21;12.40;99.90
72646;DHT22;60687;53.876;10.674;2023-10-09T19:10:31;12.40;99.90
72646;DHT22;60687;53.876;10.674;2023-10-09T19:20:36;12.40;99.90
72646;DHT22;60687;53.876;10.674;2023-10-09T19:30:39;12.40;99.90
72646;DHT22;60687;53.876;10.674;2023-10-09T19:40:49;12.50;99.90
72646;DHT22;60687;53.876;10.674;2023-10-09T19:50:58;12.40;99.90
72646;DHT22;60687;53.876;10.674;2023-10-09T20:01:06;12.50;99.90
72646;DHT22;60687;53.876;10.674;2023-10-09T20:11:10;12.50;99.90
72646;DHT22;60687;53.876;10.674;2023-10-09T20:21:15;12.50;99.90
72646;DHT22;60687;53.876;10.674;2023-10-09T20:31:20;12.50;99.90
72646;DHT22;60687;53.876;10.674;2023-10-09T20:41:24;12.50;99.90
72646;DHT22;60687;53.876;10.674;2023-10-09T20:51:29;12.50;99.90
72646;DHT22;60687;53.876;10.674;2023-10-09T21:01:33;12.50;99.90
72646;DHT22;60687;53.876;10.674;2023-10-09T21:11:39;12.50;99.90
72646;DHT22;60687;53.876;10.674;2023-10-09T21:21:43;12.50;99.90
72646;DHT22;60687;53.876;10.674;2023-10-09T21:31:46;12.60;99.90
72646;DHT22;60687;53.876;10.674;2023-10-09T21:41:50;12.60;99.90
72646;DHT22;60687;53.876;10.674;2023-10-09T21:51:54;12.60;99.90
72646;DHT22;60687;53.876;10.674;2023-10-09T22:01:58;12.60;99.90
72646;DHT22;60687;53.876;10.674;2023-10-09T22:12:00;12.60;99.90
72646;DHT22;60687;53.876;10.674;2023-10-09T22:22:04;12.60;99.90
72646;DHT22;60687;53.876;10.674;2023-10-09T22:32:12;12.50;99.90
72646;DHT22;60687;53.876;10.674;2023-10-09T22:42:19;12.50;99.90
72646;DHT22;60687;53.876;10.674;2023-10-09T22:52:23;12.50;99.90
72646;DHT22;60687;53.876;10.674;2023-10-09T23:02:27;12.50;99.90
72646;DHT22;60687;53.876;10.674;2023-10-09T23:12:43;12.50;99.90
72646;DHT22;60687;53.876;10.674;2023-10-09T23:22:51;12.50;99.90
72646;DHT22;60687;53.876;10.674;2023-10-09T23:32:54;12.60;99.90
72646;DHT22;60687;53.876;10.674;2023-10-09T23:43:14;12.60;99.90
72646;DHT22;60687;53.876;10.674;2023-10-09T23:53:17;12.60;99.90
